A- A+ FrançaisEnglishEspañol中国

Services sur Internet Soldes sur Internet Des idées de cadeaux Météo Météo aéro

La météo à : Autours de vous Rion-Des-Landes Tarbes-Lourdes-PyrénéesToulouse-BlagnacBiarritz-Bayonne-Anglet

La météo aéronautique pour les pilotes, la préparation du vol avec les METAR (METeorological Aerodrome Report, message d'observation des conditions météorologiques pour l'aviation) et Les TAF (Terminal Aerodrome Forecast : message de prévision à court terme des conditions météorologiques pour l'aviation). Et les autres ressources comme les VAC (Visual Approch Chart) et les NOTAM (Notice To Airman) pour préprer les vols.

Aéroport Linkoping Malmen (Suède) / OACI ESCF

L'altitude de l'aéroport Linkoping Malmen est de 94 m = 308 ft. Il est situé à proximité de Linköping (Suède). La météo générale à 5 jours est disponible pour Linköpings Kommun situé à 5.5 km.

METAR de l'aéroport Linkoping Malmen - ESCF

ESCF 091450Z 19008KT 9999 -SHRA FEW008 SCT018CB BKN025 05/04 Q0985

Décodage du METAR de l'aéroport Linkoping Malmen (SE)

METAR émis par ESCF le lundi 9 décembre 2019 à 14:50 heure TU, il y a 18 minutes.

La visibilité est de supérieure à 10 km = supérieure à 6.2 sm.

La température est de 5°C = 41 °F et le point rosée est de 4°C = 39 °F . Ce qui correspond à 93% d'humidité relative.

Le QNH est de 985 hPa = 29.09 inHg

Vent de 8 kt = 15 km/h, orienté à 190°.

Nuages : Quelques nuages à 800 ft = 240 mètres. Nuages épars à 1800 ft = 550 mètres. Couverture nuageuse fragmentée à 2500 ft = 760 mètres.

-SHRA

TAF de l'aéroport Linkoping Malmen - ESCF

ESCF 091130Z 0912/0916 23012G20KT 9999 BKN020 TEMPO 0912/0916 7000 SHRA BKN012 SCT020CB RMK MIL

ESCF 091130Z 0912/0916 23012G20KT 9999 couverture nuageuse fragmentée à 020 temporairement 0912/0916 7000 SHRA couverture nuageuse fragmentée à 012 nuages épars à 020CB remarques MIL

Aéroport à proximité de Linkoping Malmen

Météo générale à 5 jours à Linköpings Kommun (5.5 km)Aéroport Linkoping SAAB (9 km)Aéroport Norrkoping Kungsangen (47 km)Aéroport Karlsborg (61 km)Aéroport Eksjo Ranneslatt (88 km)Aéroport Skovde (91 km)Aéroport Stockholm Skavsta (91 km)

Vue aérienne de l'aéroport Linkoping Malmen

NOTAM de l'aéroport Linkoping Malmen

Les NOTAM sont fournis sans aucune garantie de leur actualité. Le pilote est le seul responsable de la vérification de sa validité avant de l'utiliser opérationnellement pour préparer un vol ou l'utiliser lors de sa navigation.

Pas de NOTAM

Sources des données